createdAt,value
2023-02-22T00:01:35.939Z,5.57
2023-02-22T00:04:26.111Z,5.73
2023-02-22T00:07:15.904Z,6.73
2023-02-22T00:10:09.612Z,5.93
2023-02-22T00:12:59.683Z,5.10
2023-02-22T00:15:50.813Z,5.80
2023-02-22T00:18:40.584Z,5.40
2023-02-22T00:21:31.520Z,6.00
2023-02-22T00:24:25.025Z,4.90
2023-02-22T00:27:17.632Z,4.70
2023-02-22T00:30:09.895Z,7.27
2023-02-22T00:33:01.229Z,4.47
2023-02-22T00:35:50.999Z,6.40
2023-02-22T00:38:42.410Z,6.77
2023-02-22T00:41:31.972Z,4.97
2023-02-22T00:44:22.231Z,6.07
2023-02-22T00:47:12.366Z,5.57
2023-02-22T00:50:04.561Z,4.83
2023-02-22T00:52:54.656Z,5.03
2023-02-22T00:55:44.932Z,5.23
2023-02-22T00:58:34.447Z,5.53
2023-02-22T01:01:24.972Z,4.20
2023-02-22T01:04:15.307Z,5.00
2023-02-22T01:07:06.788Z,5.83
2023-02-22T01:09:56.255Z,5.07
2023-02-22T01:12:46.180Z,5.53
2023-02-22T01:15:36.964Z,4.97
2023-02-22T01:18:26.594Z,5.67
2023-02-22T01:21:16.455Z,4.50
2023-02-22T01:24:08.126Z,4.77
2023-02-22T01:26:58.094Z,5.63
2023-02-22T01:29:47.624Z,4.40
2023-02-22T01:32:38.125Z,4.60
2023-02-22T01:35:31.163Z,4.73
2023-02-22T01:38:20.828Z,5.30
2023-02-22T01:41:12.087Z,5.07
2023-02-22T01:44:16.461Z,4.70
2023-02-22T01:47:09.355Z,4.70
2023-02-22T01:49:59.311Z,5.20
2023-02-22T01:52:48.870Z,6.10
2023-02-22T01:55:39.685Z,5.60
2023-02-22T01:58:34.553Z,5.83
2023-02-22T02:01:26.220Z,5.53
2023-02-22T02:04:21.133Z,4.20
2023-02-22T02:07:15.218Z,5.00
2023-02-22T06:53:06.460Z,4.53
2023-02-22T06:55:57.262Z,8.70
2023-02-22T06:58:47.143Z,4.80
2023-02-22T07:01:36.872Z,5.23
2023-02-22T07:04:26.655Z,4.93
2023-02-22T07:07:16.382Z,6.73
2023-02-22T07:10:09.426Z,4.70
2023-02-22T07:12:59.895Z,14.83
2023-02-22T07:15:50.208Z,5.23
2023-02-22T07:18:40.622Z,4.47
2023-02-22T07:21:33.660Z,4.17
2023-02-22T07:24:23.774Z,3.57
2023-02-22T07:27:15.891Z,14.70
2023-02-22T07:30:06.306Z,50.80
2023-02-22T07:32:57.520Z,4.07
2023-02-22T07:35:49.064Z,4.87
2023-02-22T07:38:38.815Z,4.10
2023-02-22T07:41:28.803Z,17.80
2023-02-22T07:44:20.558Z,3.27
2023-02-22T07:47:13.136Z,3.77
2023-02-22T07:50:04.210Z,4.80
2023-02-22T07:52:55.247Z,3.57
2023-02-22T07:55:45.442Z,3.70
2023-02-22T07:58:35.801Z,2.27
2023-02-22T08:01:27.477Z,4.10
2023-02-22T08:04:17.116Z,14.17
2023-02-22T08:07:07.163Z,3.87
2023-02-22T08:09:58.350Z,4.27
2023-02-22T08:12:50.099Z,3.67
2023-02-22T08:15:41.727Z,3.93
2023-02-22T08:18:34.298Z,3.60
2023-02-22T08:21:23.915Z,8.10
2023-02-22T08:24:13.692Z,4.23
2023-02-22T08:27:03.780Z,4.70
2023-02-22T08:29:53.758Z,5.90
2023-02-22T08:32:43.900Z,59.83
2023-02-22T08:35:36.798Z,22.63
2023-02-22T08:38:29.923Z,28.70
2023-02-22T08:41:19.800Z,4.90
2023-02-22T08:44:09.508Z,5.97
2023-02-22T08:46:59.748Z,5.17
2023-02-22T08:49:49.955Z,4.23
2023-02-22T08:52:41.774Z,7.23
2023-02-22T08:55:33.884Z,4.87
2023-02-22T08:58:23.719Z,3.60
2023-02-22T09:01:19.260Z,5.30
2023-02-22T09:04:12.606Z,4.43
2023-02-22T09:07:02.465Z,4.80
2023-02-22T09:09:53.655Z,27.97
2023-02-22T09:12:43.630Z,4.17
2023-02-22T09:15:34.895Z,6.13
2023-02-22T09:18:28.576Z,4.33
2023-02-22T09:21:21.338Z,4.23
2023-02-22T09:24:11.707Z,3.13
2023-02-22T09:27:05.081Z,5.13
2023-02-22T09:29:54.845Z,4.10
2023-02-22T09:32:44.936Z,4.23
2023-02-22T09:35:37.009Z,3.80
2023-02-22T09:38:27.257Z,4.70
2023-02-22T09:41:23.575Z,6.63
2023-02-22T09:44:22.620Z,5.40
2023-02-22T09:47:18.619Z,4.23
2023-02-22T09:50:16.353Z,8.30
2023-02-22T09:53:09.792Z,4.97
2023-02-22T09:56:04.146Z,4.37
2023-02-22T09:58:57.544Z,4.50
2023-02-22T10:01:57.191Z,3.90
2023-02-22T10:04:51.874Z,3.93
2023-02-22T10:07:49.225Z,4.03
2023-02-22T10:10:41.776Z,24.20
2023-02-22T10:13:39.991Z,4.50
2023-02-22T10:16:38.196Z,5.47
2023-02-22T10:19:36.269Z,4.53
2023-02-22T10:22:41.896Z,5.30
2023-02-22T10:25:37.195Z,4.50
2023-02-22T10:28:32.843Z,4.67
2023-02-22T10:31:27.326Z,4.30
2023-02-22T10:34:21.239Z,5.33
2023-02-22T10:37:27.980Z,5.97
2023-02-22T10:40:21.132Z,5.67
2023-02-22T10:43:13.224Z,4.77
2023-02-22T10:46:07.342Z,4.80
2023-02-22T10:49:04.229Z,5.30
2023-02-22T10:52:02.259Z,6.67
2023-02-22T10:54:58.841Z,5.37
2023-02-22T10:57:53.705Z,4.93
2023-02-22T11:00:44.496Z,5.57
2023-02-22T11:03:36.521Z,5.53
2023-02-22T11:06:28.275Z,6.60
2023-02-22T11:09:19.700Z,6.07
2023-02-22T11:12:20.613Z,4.27
2023-02-22T11:15:32.124Z,5.37
2023-02-22T11:18:28.802Z,5.83
2023-02-22T11:21:25.101Z,5.23
2023-02-22T11:24:21.112Z,4.90
2023-02-22T11:27:12.247Z,6.27
2023-02-22T11:30:22.543Z,5.10
2023-02-22T11:33:24.238Z,5.57
2023-02-22T11:36:17.008Z,4.87
2023-02-22T11:39:12.155Z,3.87
2023-02-22T11:42:23.238Z,8.13
2023-02-22T11:45:21.525Z,6.33
2023-02-22T11:48:23.798Z,4.20
2023-02-22T11:51:22.591Z,5.77
2023-02-22T11:54:32.044Z,6.20
2023-02-22T11:57:38.601Z,7.07
2023-02-22T12:00:40.062Z,5.57
2023-02-22T12:03:54.481Z,5.80
2023-02-22T12:06:51.799Z,5.33
2023-02-22T12:09:50.513Z,5.77
2023-02-22T12:12:55.474Z,4.83
2023-02-22T12:15:53.812Z,4.63
2023-02-22T12:18:54.077Z,7.07
2023-02-22T12:21:47.058Z,7.07
2023-02-22T12:24:40.176Z,6.40
2023-02-22T12:27:37.358Z,5.63
2023-02-22T12:30:31.795Z,5.90
2023-02-22T12:33:28.871Z,6.30
2023-02-22T12:36:24.919Z,6.63
2023-02-22T12:39:28.445Z,6.27
2023-02-22T12:42:23.638Z,6.03
2023-02-22T12:45:19.465Z,7.97
2023-02-22T12:48:27.286Z,7.87
2023-02-22T12:51:30.436Z,7.03
2023-02-22T12:54:29.058Z,9.10
2023-02-22T12:57:29.071Z,7.53
2023-02-22T13:00:27.314Z,8.57
2023-02-22T13:03:35.990Z,7.17
2023-02-22T13:06:43.264Z,8.20
2023-02-22T13:10:00.788Z,7.97
2023-02-22T13:12:58.203Z,7.17
2023-02-22T13:15:57.027Z,6.43
2023-02-22T13:18:54.527Z,6.30
2023-02-22T13:21:51.114Z,5.77
2023-02-22T13:24:51.252Z,6.23
2023-02-22T13:27:45.943Z,4.93
2023-02-22T13:30:49.395Z,7.10
2023-02-22T13:34:08.110Z,5.27
2023-02-22T13:37:20.157Z,5.93
2023-02-22T13:40:38.052Z,6.23
2023-02-22T13:44:03.190Z,5.43
2023-02-22T13:47:34.535Z,5.90
2023-02-22T13:50:53.872Z,5.20
2023-02-22T13:53:51.644Z,7.87
2023-02-22T13:56:45.493Z,7.57
2023-02-22T13:59:39.011Z,6.50
2023-02-22T14:02:37.645Z,6.20
2023-02-22T14:05:54.389Z,6.67
2023-02-22T14:08:48.136Z,7.37
2023-02-22T14:11:47.025Z,7.33
2023-02-22T14:14:46.272Z,8.07
2023-02-22T14:17:36.194Z,9.20
2023-02-22T14:20:32.866Z,7.37
2023-02-22T14:23:40.978Z,6.20
2023-02-22T14:26:32.850Z,6.83
2023-02-22T14:29:22.949Z,8.60
2023-02-22T14:32:15.551Z,9.33
2023-02-22T14:35:17.191Z,7.87
2023-02-22T14:38:20.240Z,11.13
2023-02-22T14:41:12.340Z,13.00
2023-02-22T14:44:06.412Z,9.87
2023-02-22T14:47:03.077Z,14.93
2023-02-22T14:49:55.768Z,12.67
2023-02-22T14:52:48.243Z,11.63
2023-02-22T14:55:43.720Z,8.93
2023-02-22T14:58:40.642Z,9.17
2023-02-22T15:01:48.987Z,10.53
2023-02-22T15:04:53.694Z,9.60
2023-02-22T15:07:53.127Z,11.37
2023-02-22T15:10:45.391Z,11.03
2023-02-22T15:13:36.703Z,12.27
2023-02-22T15:16:29.151Z,10.80
2023-02-22T15:19:25.744Z,9.50
2023-02-22T15:22:23.083Z,11.70
2023-02-22T15:25:13.665Z,10.50
2023-02-22T15:28:10.036Z,10.80
2023-02-22T15:31:35.156Z,10.90
2023-02-22T15:34:29.826Z,10.10
2023-02-22T15:37:25.811Z,11.03
2023-02-22T15:40:18.888Z,11.03
2023-02-22T15:43:11.117Z,9.93
2023-02-22T15:46:02.120Z,12.57
2023-02-22T15:52:04.226Z,13.57
2023-02-22T15:54:55.640Z,15.50
2023-02-22T15:57:46.030Z,18.63
2023-02-22T16:00:38.865Z,20.37
2023-02-22T16:03:33.784Z,41.33
2023-02-22T16:06:31.342Z,48.67
2023-02-22T16:09:27.023Z,50.77
2023-02-22T16:12:27.253Z,49.00
2023-02-22T16:15:20.207Z,58.37
2023-02-22T16:18:26.692Z,55.20
2023-02-22T16:21:19.561Z,48.20
2023-02-22T16:24:29.539Z,46.60
2023-02-22T16:27:22.643Z,41.90
2023-02-22T16:30:28.384Z,34.87
2023-02-22T16:33:19.665Z,33.63
2023-02-22T16:36:09.955Z,24.47
2023-02-22T16:38:59.429Z,28.47
2023-02-22T16:41:52.286Z,23.57
2023-02-22T16:44:42.106Z,28.53
2023-02-22T16:47:32.405Z,38.70
2023-02-22T16:50:24.345Z,32.20
2023-02-22T16:53:15.140Z,29.03
2023-02-22T16:56:07.371Z,20.70
2023-02-22T16:58:59.546Z,17.03
2023-02-22T17:01:49.128Z,15.93
2023-02-22T17:04:40.325Z,19.23
2023-02-22T17:07:32.166Z,23.07
2023-02-22T17:10:22.773Z,18.30
2023-02-22T17:13:23.040Z,13.80
2023-02-22T17:16:17.336Z,13.83
2023-02-22T17:19:21.877Z,20.73
2023-02-22T17:22:26.145Z,23.90
2023-02-22T17:25:28.533Z,20.77
2023-02-22T17:28:28.474Z,15.50
2023-02-22T17:31:34.192Z,13.03
2023-02-22T17:34:30.780Z,18.60
2023-02-22T17:37:24.747Z,52.17
2023-02-22T17:40:23.650Z,19.37
2023-02-22T17:43:20.144Z,12.87
2023-02-22T17:46:15.821Z,97.97
2023-02-22T17:49:07.851Z,206.47
2023-02-22T17:51:58.788Z,464.70
2023-02-22T17:54:49.725Z,546.57
2023-02-22T17:57:44.942Z,443.77
2023-02-22T18:00:39.275Z,570.37
2023-02-22T18:03:32.153Z,155.93
2023-02-22T18:06:29.847Z,82.60
2023-02-22T18:09:27.360Z,384.40
2023-02-22T18:12:18.587Z,270.63
2023-02-22T18:15:11.192Z,57.77
2023-02-22T18:18:02.961Z,31.03
2023-02-22T18:21:00.497Z,18.83
2023-02-22T18:23:58.573Z,16.93
2023-02-22T18:26:56.227Z,16.27
2023-02-22T18:29:50.961Z,20.30
2023-02-22T18:32:48.746Z,33.63
2023-02-22T18:35:40.242Z,32.60
2023-02-22T18:38:31.766Z,38.67
2023-02-22T18:41:29.347Z,32.97
2023-02-22T18:44:21.403Z,32.30
2023-02-22T18:47:13.261Z,41.30
2023-02-22T18:50:04.509Z,34.63
2023-02-22T18:52:55.865Z,35.40
2023-02-22T18:55:47.683Z,27.70
2023-02-22T18:58:41.370Z,34.37
2023-02-22T19:01:40.100Z,47.07
2023-02-22T19:04:32.069Z,56.80
2023-02-22T19:07:28.903Z,53.37
2023-02-22T19:10:23.178Z,47.17
2023-02-22T19:13:14.820Z,35.27
2023-02-22T19:16:08.567Z,34.77
2023-02-22T19:19:00.565Z,34.30
2023-02-22T19:21:58.174Z,39.67
2023-02-22T19:24:49.340Z,37.13
2023-02-22T19:27:44.059Z,37.80
2023-02-22T19:30:35.359Z,40.30
2023-02-22T19:33:31.110Z,37.90
2023-02-22T19:36:24.744Z,36.83
2023-02-22T19:39:17.285Z,42.63
2023-02-22T19:42:11.330Z,47.80
2023-02-22T19:45:03.076Z,52.77
2023-02-22T19:47:59.470Z,53.93
2023-02-22T19:51:00.017Z,66.20
2023-02-22T19:53:52.896Z,64.67
2023-02-22T19:56:45.053Z,66.53
2023-02-22T19:59:36.999Z,62.23
2023-02-22T20:02:29.782Z,56.30
2023-02-22T20:05:24.386Z,59.70
2023-02-22T20:08:16.062Z,61.97
2023-02-22T20:11:07.468Z,59.10
2023-02-22T20:13:59.194Z,59.57
2023-02-22T20:16:51.342Z,69.40
2023-02-22T20:19:44.040Z,63.92
2023-02-22T20:22:39.169Z,57.67
2023-02-22T20:25:35.979Z,56.43
2023-02-22T20:28:28.395Z,55.73
2023-02-22T20:31:21.150Z,52.47
2023-02-22T20:34:19.722Z,51.53
2023-02-22T20:37:11.434Z,50.17
2023-02-22T20:40:04.904Z,55.83
2023-02-22T20:42:58.092Z,51.33
2023-02-22T20:45:49.793Z,56.23
2023-02-22T20:48:43.027Z,53.90
2023-02-22T20:51:35.541Z,50.07
2023-02-22T20:54:26.595Z,54.30
2023-02-22T20:57:18.419Z,54.93
2023-02-22T21:00:12.093Z,48.13
2023-02-22T21:03:03.987Z,46.47
2023-02-22T21:05:55.159Z,44.43
2023-02-22T21:08:46.606Z,33.30
2023-02-22T21:11:37.627Z,31.80
2023-02-22T21:14:30.408Z,29.63
2023-02-22T21:17:30.019Z,26.10
2023-02-22T21:20:22.961Z,26.17
2023-02-22T21:23:13.684Z,26.27
2023-02-22T21:26:05.670Z,22.60
2023-02-22T21:28:57.677Z,19.10
2023-02-22T21:31:51.693Z,18.53
2023-02-22T21:34:49.493Z,19.97
2023-02-22T21:41:21.785Z,17.10
2023-02-22T21:44:12.148Z,21.47
2023-02-22T21:47:01.928Z,18.70
2023-02-22T21:49:56.345Z,18.47
2023-02-22T21:52:47.395Z,15.70
2023-02-22T21:55:38.834Z,16.43
2023-02-22T21:58:31.494Z,15.20
2023-02-22T22:01:21.201Z,16.60
2023-02-22T22:04:11.356Z,14.03
2023-02-22T22:07:04.318Z,14.90
2023-02-22T22:09:57.456Z,17.33
2023-02-22T22:12:50.813Z,16.87
2023-02-22T22:15:40.575Z,18.20
2023-02-22T22:18:30.072Z,20.80
2023-02-22T22:21:23.473Z,16.77
2023-02-22T22:24:14.767Z,20.63
2023-02-22T22:27:07.200Z,19.27
2023-02-22T22:29:58.000Z,18.40
2023-02-22T22:32:47.480Z,20.53
2023-02-22T22:35:39.689Z,16.87
2023-02-22T22:38:30.408Z,15.73
2023-02-22T22:41:22.438Z,15.30
2023-02-22T22:44:12.982Z,15.77
2023-02-22T22:47:02.499Z,16.03
2023-02-22T22:49:53.330Z,17.37
2023-02-22T22:52:42.929Z,20.77
2023-02-22T22:55:33.420Z,16.93
2023-02-22T22:58:24.513Z,17.80
2023-02-22T23:01:20.272Z,19.10
2023-02-22T23:04:12.858Z,19.83
2023-02-22T23:07:02.335Z,20.20
2023-02-22T23:09:51.730Z,17.13
2023-02-22T23:12:41.295Z,20.00
2023-02-22T23:15:32.396Z,16.63
2023-02-22T23:18:22.160Z,18.90
2023-02-22T23:21:12.907Z,22.67
2023-02-22T23:24:02.754Z,15.90
2023-02-22T23:26:52.401Z,15.67
2023-02-22T23:29:43.662Z,17.13
2023-02-22T23:32:36.178Z,18.53
2023-02-22T23:35:31.614Z,19.43
2023-02-22T23:38:21.300Z,19.03
2023-02-22T23:41:12.347Z,26.17
2023-02-22T23:44:02.359Z,20.33
2023-02-22T23:46:55.868Z,21.97
2023-02-22T23:49:50.024Z,21.07
2023-02-22T23:52:39.578Z,20.30
2023-02-22T23:55:31.835Z,19.77
2023-02-22T23:58:23.988Z,16.83
